sensor_id;sensor_type;location;lat;lon;timestamp;P1;durP1;ratioP1;P2;durP2;ratioP2
71773;SDS011;59607;52.130;5.430;2023-04-12T00:00:16;4.80;;;0.73;;
71773;SDS011;59607;52.130;5.430;2023-04-12T00:02:42;5.95;;;0.55;;
71773;SDS011;59607;52.130;5.430;2023-04-12T00:05:20;4.75;;;0.70;;
71773;SDS011;59607;52.130;5.430;2023-04-12T00:07:55;3.93;;;0.80;;
71773;SDS011;59607;52.130;5.430;2023-04-12T00:10:22;6.95;;;0.57;;
71773;SDS011;59607;52.130;5.430;2023-04-12T00:12:48;2.65;;;0.57;;
71773;SDS011;59607;52.130;5.430;2023-04-12T00:15:32;2.47;;;0.50;;
71773;SDS011;59607;52.130;5.430;2023-04-12T00:18:01;1.10;;;0.30;;
71773;SDS011;59607;52.130;5.430;2023-04-12T00:20:27;2.83;;;0.43;;
71773;SDS011;59607;52.130;5.430;2023-04-12T00:22:54;2.45;;;0.30;;
71773;SDS011;59607;52.130;5.430;2023-04-12T00:25:25;2.63;;;0.30;;
71773;SDS011;59607;52.130;5.430;2023-04-12T00:27:51;2.03;;;0.40;;
71773;SDS011;59607;52.130;5.430;2023-04-12T00:30:18;2.03;;;0.30;;
71773;SDS011;59607;52.130;5.430;2023-04-12T00:32:52;0.70;;;0.30;;
71773;SDS011;59607;52.130;5.430;2023-04-12T00:35:18;2.25;;;0.40;;
71773;SDS011;59607;52.130;5.430;2023-04-12T00:37:48;3.20;;;0.30;;
71773;SDS011;59607;52.130;5.430;2023-04-12T00:40:17;1.33;;;0.28;;
71773;SDS011;59607;52.130;5.430;2023-04-12T00:42:45;2.35;;;0.35;;
71773;SDS011;59607;52.130;5.430;2023-04-12T00:45:19;2.30;;;0.30;;
71773;SDS011;59607;52.130;5.430;2023-04-12T00:47:48;1.20;;;0.30;;
71773;SDS011;59607;52.130;5.430;2023-04-12T00:50:14;1.20;;;0.30;;
71773;SDS011;59607;52.130;5.430;2023-04-12T00:52:41;1.27;;;0.40;;
71773;SDS011;59607;52.130;5.430;2023-04-12T00:55:07;1.40;;;0.50;;
71773;SDS011;59607;52.130;5.430;2023-04-12T00:57:38;2.37;;;0.43;;
71773;SDS011;59607;52.130;5.430;2023-04-12T01:00:05;1.42;;;0.30;;
71773;SDS011;59607;52.130;5.430;2023-04-12T01:02:41;2.05;;;0.60;;
71773;SDS011;59607;52.130;5.430;2023-04-12T01:05:14;3.38;;;0.60;;
71773;SDS011;59607;52.130;5.430;2023-04-12T01:10:40;2.97;;;0.60;;
71773;SDS011;59607;52.130;5.430;2023-04-12T01:16:05;2.60;;;0.68;;
71773;SDS011;59607;52.130;5.430;2023-04-12T01:18:58;2.50;;;0.50;;
71773;SDS011;59607;52.130;5.430;2023-04-12T01:21:54;2.97;;;0.60;;
71773;SDS011;59607;52.130;5.430;2023-04-12T01:25:02;3.33;;;0.77;;
71773;SDS011;59607;52.130;5.430;2023-04-12T01:27:43;1.55;;;0.40;;
71773;SDS011;59607;52.130;5.430;2023-04-12T01:30:12;2.72;;;0.50;;
71773;SDS011;59607;52.130;5.430;2023-04-12T01:32:49;2.90;;;0.50;;
71773;SDS011;59607;52.130;5.430;2023-04-12T01:35:20;3.30;;;0.57;;
71773;SDS011;59607;52.130;5.430;2023-04-12T01:37:52;4.17;;;0.43;;
71773;SDS011;59607;52.130;5.430;2023-04-12T01:40:18;4.45;;;0.35;;
71773;SDS011;59607;52.130;5.430;2023-04-12T01:42:46;2.30;;;0.38;;
71773;SDS011;59607;52.130;5.430;2023-04-12T01:45:15;4.43;;;0.60;;
71773;SDS011;59607;52.130;5.430;2023-04-12T01:47:41;1.52;;;0.40;;
71773;SDS011;59607;52.130;5.430;2023-04-12T01:50:11;2.30;;;0.50;;
71773;SDS011;59607;52.130;5.430;2023-04-12T01:53:13;1.00;;;0.32;;
71773;SDS011;59607;52.130;5.430;2023-04-12T01:55:46;1.33;;;0.52;;
71773;SDS011;59607;52.130;5.430;2023-04-12T01:58:20;1.50;;;0.50;;
71773;SDS011;59607;52.130;5.430;2023-04-12T02:00:48;3.75;;;0.30;;
71773;SDS011;59607;52.130;5.430;2023-04-12T02:03:21;4.23;;;0.50;;
71773;SDS011;59607;52.130;5.430;2023-04-12T02:05:49;2.83;;;0.40;;
71773;SDS011;59607;52.130;5.430;2023-04-12T02:08:18;4.47;;;0.47;;
71773;SDS011;59607;52.130;5.430;2023-04-12T02:10:47;1.92;;;0.38;;
71773;SDS011;59607;52.130;5.430;2023-04-12T02:13:14;3.92;;;0.40;;
71773;SDS011;59607;52.130;5.430;2023-04-12T02:15:48;1.70;;;0.40;;
71773;SDS011;59607;52.130;5.430;2023-04-12T02:18:15;1.90;;;0.60;;
71773;SDS011;59607;52.130;5.430;2023-04-12T02:20:42;2.25;;;0.30;;
71773;SDS011;59607;52.130;5.430;2023-04-12T02:23:15;4.25;;;0.50;;
71773;SDS011;59607;52.130;5.430;2023-04-12T02:25:41;1.88;;;0.40;;
71773;SDS011;59607;52.130;5.430;2023-04-12T02:28:12;4.10;;;0.50;;
71773;SDS011;59607;52.130;5.430;2023-04-12T02:30:40;6.47;;;1.15;;
71773;SDS011;59607;52.130;5.430;2023-04-12T02:33:08;1.02;;;0.30;;
71773;SDS011;59607;52.130;5.430;2023-04-12T02:35:41;2.00;;;0.30;;
71773;SDS011;59607;52.130;5.430;2023-04-12T02:38:07;2.65;;;0.40;;
71773;SDS011;59607;52.130;5.430;2023-04-12T02:40:39;2.10;;;0.40;;
71773;SDS011;59607;52.130;5.430;2023-04-12T02:43:08;3.25;;;0.40;;
71773;SDS011;59607;52.130;5.430;2023-04-12T02:45:35;1.48;;;0.50;;
71773;SDS011;59607;52.130;5.430;2023-04-12T02:48:07;1.08;;;0.43;;
71773;SDS011;59607;52.130;5.430;2023-04-12T02:50:34;3.30;;;0.40;;
71773;SDS011;59607;52.130;5.430;2023-04-12T02:53:12;1.60;;;0.50;;
71773;SDS011;59607;52.130;5.430;2023-04-12T02:55:38;2.85;;;0.50;;
71773;SDS011;59607;52.130;5.430;2023-04-12T02:58:08;2.30;;;0.40;;
71773;SDS011;59607;52.130;5.430;2023-04-12T03:00:34;3.90;;;0.50;;
71773;SDS011;59607;52.130;5.430;2023-04-12T03:03:01;2.65;;;0.52;;
71773;SDS011;59607;52.130;5.430;2023-04-12T03:05:30;1.07;;;0.30;;
71773;SDS011;59607;52.130;5.430;2023-04-12T03:07:59;2.45;;;0.60;;
71773;SDS011;59607;52.130;5.430;2023-04-12T03:10:25;5.68;;;0.60;;
71773;SDS011;59607;52.130;5.430;2023-04-12T03:12:52;3.15;;;0.88;;
71773;SDS011;59607;52.130;5.430;2023-04-12T03:15:23;1.15;;;0.47;;
71773;SDS011;59607;52.130;5.430;2023-04-12T03:17:49;2.10;;;0.40;;
71773;SDS011;59607;52.130;5.430;2023-04-12T03:20:20;3.05;;;0.30;;
71773;SDS011;59607;52.130;5.430;2023-04-12T03:22:52;5.68;;;0.57;;
71773;SDS011;59607;52.130;5.430;2023-04-12T03:25:19;1.92;;;0.40;;
71773;SDS011;59607;52.130;5.430;2023-04-12T03:27:52;1.67;;;0.40;;
71773;SDS011;59607;52.130;5.430;2023-04-12T03:30:18;3.20;;;0.40;;
71773;SDS011;59607;52.130;5.430;2023-04-12T03:32:57;3.53;;;0.68;;
71773;SDS011;59607;52.130;5.430;2023-04-12T03:35:23;4.05;;;0.50;;
71773;SDS011;59607;52.130;5.430;2023-04-12T03:38:00;1.58;;;0.55;;
71773;SDS011;59607;52.130;5.430;2023-04-12T03:40:27;1.80;;;0.40;;
71773;SDS011;59607;52.130;5.430;2023-04-12T03:42:58;2.30;;;0.40;;
71773;SDS011;59607;52.130;5.430;2023-04-12T03:45:27;3.05;;;0.70;;
71773;SDS011;59607;52.130;5.430;2023-04-12T03:48:02;5.60;;;0.57;;
71773;SDS011;59607;52.130;5.430;2023-04-12T03:50:29;3.05;;;0.50;;
71773;SDS011;59607;52.130;5.430;2023-04-12T03:52:56;1.95;;;0.30;;
71773;SDS011;59607;52.130;5.430;2023-04-12T03:55:26;2.80;;;0.40;;
71773;SDS011;59607;52.130;5.430;2023-04-12T03:57:52;1.80;;;0.30;;
71773;SDS011;59607;52.130;5.430;2023-04-12T04:00:21;2.13;;;0.50;;
71773;SDS011;59607;52.130;5.430;2023-04-12T04:02:52;1.45;;;0.50;;
71773;SDS011;59607;52.130;5.430;2023-04-12T04:05:19;2.33;;;0.30;;
71773;SDS011;59607;52.130;5.430;2023-04-12T04:07:53;1.47;;;0.40;;
71773;SDS011;59607;52.130;5.430;2023-04-12T04:10:19;0.82;;;0.30;;
71773;SDS011;59607;52.130;5.430;2023-04-12T04:12:46;4.30;;;0.60;;
71773;SDS011;59607;52.130;5.430;2023-04-12T04:15:17;1.00;;;0.40;;
71773;SDS011;59607;52.130;5.430;2023-04-12T04:17:43;2.80;;;0.43;;
71773;SDS011;59607;52.130;5.430;2023-04-12T04:20:15;0.97;;;0.40;;
71773;SDS011;59607;52.130;5.430;2023-04-12T04:22:46;1.40;;;0.40;;
71773;SDS011;59607;52.130;5.430;2023-04-12T04:25:13;1.35;;;0.40;;
71773;SDS011;59607;52.130;5.430;2023-04-12T04:27:44;1.50;;;0.40;;
71773;SDS011;59607;52.130;5.430;2023-04-12T04:30:11;2.67;;;0.40;;
71773;SDS011;59607;52.130;5.430;2023-04-12T04:32:40;1.03;;;0.30;;
71773;SDS011;59607;52.130;5.430;2023-04-12T04:35:08;1.20;;;0.30;;
71773;SDS011;59607;52.130;5.430;2023-04-12T04:37:35;0.80;;;0.32;;
71773;SDS011;59607;52.130;5.430;2023-04-12T04:40:05;2.05;;;0.43;;
71773;SDS011;59607;52.130;5.430;2023-04-12T04:42:38;0.75;;;0.25;;
71773;SDS011;59607;52.130;5.430;2023-04-12T04:45:06;1.17;;;0.40;;
71773;SDS011;59607;52.130;5.430;2023-04-12T04:47:41;1.83;;;0.40;;
71773;SDS011;59607;52.130;5.430;2023-04-12T04:50:11;1.27;;;0.30;;
71773;SDS011;59607;52.130;5.430;2023-04-12T04:52:40;1.70;;;0.30;;
71773;SDS011;59607;52.130;5.430;2023-04-12T04:55:07;1.27;;;0.57;;
71773;SDS011;59607;52.130;5.430;2023-04-12T04:57:43;2.07;;;0.40;;
71773;SDS011;59607;52.130;5.430;2023-04-12T05:00:11;2.85;;;0.50;;
71773;SDS011;59607;52.130;5.430;2023-04-12T05:02:41;3.53;;;0.88;;
71773;SDS011;59607;52.130;5.430;2023-04-12T05:05:11;3.00;;;0.40;;
71773;SDS011;59607;52.130;5.430;2023-04-12T05:07:58;2.30;;;0.47;;
71773;SDS011;59607;52.130;5.430;2023-04-12T05:10:28;0.80;;;0.40;;
71773;SDS011;59607;52.130;5.430;2023-04-12T05:12:55;3.33;;;0.60;;
71773;SDS011;59607;52.130;5.430;2023-04-12T05:15:25;2.53;;;0.50;;
71773;SDS011;59607;52.130;5.430;2023-04-12T05:17:55;1.10;;;0.50;;
71773;SDS011;59607;52.130;5.430;2023-04-12T05:20:21;2.17;;;0.50;;
71773;SDS011;59607;52.130;5.430;2023-04-12T05:23:03;1.70;;;0.40;;
71773;SDS011;59607;52.130;5.430;2023-04-12T05:25:29;1.25;;;0.50;;
71773;SDS011;59607;52.130;5.430;2023-04-12T05:27:59;1.58;;;0.40;;
71773;SDS011;59607;52.130;5.430;2023-04-12T05:30:26;1.00;;;0.40;;
71773;SDS011;59607;52.130;5.430;2023-04-12T05:32:55;1.55;;;0.40;;
71773;SDS011;59607;52.130;5.430;2023-04-12T05:35:26;0.70;;;0.40;;
71773;SDS011;59607;52.130;5.430;2023-04-12T05:37:56;0.75;;;0.30;;
71773;SDS011;59607;52.130;5.430;2023-04-12T05:40:25;1.05;;;0.30;;
71773;SDS011;59607;52.130;5.430;2023-04-12T05:42:52;2.30;;;0.40;;
71773;SDS011;59607;52.130;5.430;2023-04-12T05:45:19;1.92;;;0.38;;
71773;SDS011;59607;52.130;5.430;2023-04-12T05:47:52;1.20;;;0.30;;
71773;SDS011;59607;52.130;5.430;2023-04-12T05:50:18;0.50;;;0.30;;
71773;SDS011;59607;52.130;5.430;2023-04-12T05:52:49;0.73;;;0.40;;
71773;SDS011;59607;52.130;5.430;2023-04-12T05:55:20;1.05;;;0.40;;
71773;SDS011;59607;52.130;5.430;2023-04-12T05:57:46;0.90;;;0.50;;
71773;SDS011;59607;52.130;5.430;2023-04-12T06:00:13;1.17;;;0.40;;
71773;SDS011;59607;52.130;5.430;2023-04-12T06:02:44;1.95;;;0.40;;
71773;SDS011;59607;52.130;5.430;2023-04-12T06:05:12;3.40;;;0.80;;
71773;SDS011;59607;52.130;5.430;2023-04-12T06:07:43;1.05;;;0.60;;
71773;SDS011;59607;52.130;5.430;2023-04-12T06:10:13;2.65;;;0.60;;
71773;SDS011;59607;52.130;5.430;2023-04-12T06:12:45;3.57;;;0.50;;
71773;SDS011;59607;52.130;5.430;2023-04-12T06:15:12;1.25;;;0.50;;
71773;SDS011;59607;52.130;5.430;2023-04-12T06:17:39;0.98;;;0.43;;
71773;SDS011;59607;52.130;5.430;2023-04-12T06:20:09;1.65;;;0.40;;
71773;SDS011;59607;52.130;5.430;2023-04-12T06:22:36;1.80;;;0.50;;
71773;SDS011;59607;52.130;5.430;2023-04-12T06:25:13;2.40;;;0.30;;
71773;SDS011;59607;52.130;5.430;2023-04-12T06:27:41;1.05;;;0.35;;
71773;SDS011;59607;52.130;5.430;2023-04-12T06:30:10;0.90;;;0.57;;
71773;SDS011;59607;52.130;5.430;2023-04-12T06:32:41;0.63;;;0.30;;
71773;SDS011;59607;52.130;5.430;2023-04-12T06:35:07;1.92;;;0.40;;
71773;SDS011;59607;52.130;5.430;2023-04-12T06:37:39;0.83;;;0.30;;
71773;SDS011;59607;52.130;5.430;2023-04-12T06:40:06;1.00;;;0.30;;
71773;SDS011;59607;52.130;5.430;2023-04-12T06:42:37;2.45;;;0.50;;
71773;SDS011;59607;52.130;5.430;2023-04-12T06:45:06;0.85;;;0.30;;
71773;SDS011;59607;52.130;5.430;2023-04-12T06:47:39;1.40;;;0.43;;
71773;SDS011;59607;52.130;5.430;2023-04-12T06:50:05;1.20;;;0.40;;
71773;SDS011;59607;52.130;5.430;2023-04-12T06:52:32;1.35;;;0.50;;
71773;SDS011;59607;52.130;5.430;2023-04-12T06:54:59;1.00;;;0.40;;
71773;SDS011;59607;52.130;5.430;2023-04-12T06:57:31;1.98;;;0.70;;
71773;SDS011;59607;52.130;5.430;2023-04-12T06:59:57;1.40;;;0.57;;
71773;SDS011;59607;52.130;5.430;2023-04-12T07:02:24;1.37;;;0.60;;
71773;SDS011;59607;52.130;5.430;2023-04-12T07:04:59;1.98;;;0.65;;
71773;SDS011;59607;52.130;5.430;2023-04-12T07:07:26;2.80;;;0.57;;
71773;SDS011;59607;52.130;5.430;2023-04-12T07:09:56;2.03;;;0.60;;
71773;SDS011;59607;52.130;5.430;2023-04-12T07:12:24;3.42;;;1.00;;
71773;SDS011;59607;52.130;5.430;2023-04-12T07:14:54;2.83;;;0.40;;
71773;SDS011;59607;52.130;5.430;2023-04-12T07:17:20;3.08;;;1.00;;
71773;SDS011;59607;52.130;5.430;2023-04-12T07:19:47;1.75;;;1.05;;
71773;SDS011;59607;52.130;5.430;2023-04-12T07:22:15;0.82;;;0.50;;
71773;SDS011;59607;52.130;5.430;2023-04-12T07:24:48;1.85;;;0.50;;
71773;SDS011;59607;52.130;5.430;2023-04-12T07:27:15;4.03;;;0.90;;
71773;SDS011;59607;52.130;5.430;2023-04-12T07:29:50;1.85;;;0.82;;
71773;SDS011;59607;52.130;5.430;2023-04-12T07:32:17;2.28;;;1.17;;
71773;SDS011;59607;52.130;5.430;2023-04-12T07:34:47;3.22;;;1.13;;
71773;SDS011;59607;52.130;5.430;2023-04-12T07:37:17;3.67;;;0.90;;
71773;SDS011;59607;52.130;5.430;2023-04-12T07:39:47;3.17;;;0.80;;
71773;SDS011;59607;52.130;5.430;2023-04-12T07:42:20;2.53;;;0.90;;
71773;SDS011;59607;52.130;5.430;2023-04-12T07:44:46;1.95;;;1.02;;
71773;SDS011;59607;52.130;5.430;2023-04-12T07:47:13;4.50;;;1.00;;
71773;SDS011;59607;52.130;5.430;2023-04-12T07:49:44;1.92;;;0.90;;
71773;SDS011;59607;52.130;5.430;2023-04-12T07:52:11;4.97;;;1.10;;
71773;SDS011;59607;52.130;5.430;2023-04-12T07:54:37;3.75;;;1.02;;
71773;SDS011;59607;52.130;5.430;2023-04-12T07:57:06;3.35;;;0.90;;
71773;SDS011;59607;52.130;5.430;2023-04-12T07:59:33;3.72;;;1.00;;
71773;SDS011;59607;52.130;5.430;2023-04-12T08:02:15;1.58;;;1.00;;
71773;SDS011;59607;52.130;5.430;2023-04-12T08:04:55;3.37;;;1.20;;
71773;SDS011;59607;52.130;5.430;2023-04-12T08:07:23;3.85;;;1.13;;
71773;SDS011;59607;52.130;5.430;2023-04-12T08:09:55;3.30;;;1.15;;
71773;SDS011;59607;52.130;5.430;2023-04-12T08:12:25;5.45;;;1.13;;
71773;SDS011;59607;52.130;5.430;2023-04-12T08:14:54;4.00;;;1.27;;
71773;SDS011;59607;52.130;5.430;2023-04-12T08:17:20;5.67;;;0.97;;
71773;SDS011;59607;52.130;5.430;2023-04-12T08:19:50;5.07;;;1.30;;
71773;SDS011;59607;52.130;5.430;2023-04-12T08:22:17;4.70;;;1.23;;
71773;SDS011;59607;52.130;5.430;2023-04-12T08:24:43;5.00;;;1.08;;
71773;SDS011;59607;52.130;5.430;2023-04-12T08:27:12;2.38;;;0.75;;
71773;SDS011;59607;52.130;5.430;2023-04-12T08:29:41;5.23;;;1.10;;
71773;SDS011;59607;52.130;5.430;2023-04-12T08:32:08;5.20;;;1.05;;
71773;SDS011;59607;52.130;5.430;2023-04-12T08:34:44;5.80;;;1.15;;
71773;SDS011;59607;52.130;5.430;2023-04-12T08:37:11;7.00;;;1.20;;
71773;SDS011;59607;52.130;5.430;2023-04-12T08:39:37;7.40;;;1.83;;
71773;SDS011;59607;52.130;5.430;2023-04-12T08:42:09;5.30;;;0.93;;
71773;SDS011;59607;52.130;5.430;2023-04-12T08:44:36;8.82;;;1.38;;
71773;SDS011;59607;52.130;5.430;2023-04-12T08:47:08;9.90;;;1.40;;
71773;SDS011;59607;52.130;5.430;2023-04-12T08:49:38;7.15;;;1.42;;
71773;SDS011;59607;52.130;5.430;2023-04-12T08:52:05;7.50;;;1.40;;
71773;SDS011;59607;52.130;5.430;2023-04-12T08:54:43;8.10;;;1.33;;
71773;SDS011;59607;52.130;5.430;2023-04-12T08:57:12;10.15;;;1.85;;
71773;SDS011;59607;52.130;5.430;2023-04-12T08:59:45;9.02;;;1.48;;
71773;SDS011;59607;52.130;5.430;2023-04-12T09:02:31;9.70;;;1.42;;
71773;SDS011;59607;52.130;5.430;2023-04-12T09:05:07;13.23;;;1.77;;
71773;SDS011;59607;52.130;5.430;2023-04-12T09:07:39;13.73;;;2.13;;
71773;SDS011;59607;52.130;5.430;2023-04-12T09:10:09;8.27;;;1.17;;
71773;SDS011;59607;52.130;5.430;2023-04-12T09:12:43;10.15;;;1.52;;
71773;SDS011;59607;52.130;5.430;2023-04-12T09:15:13;8.65;;;1.63;;
71773;SDS011;59607;52.130;5.430;2023-04-12T09:17:44;10.02;;;1.60;;
71773;SDS011;59607;52.130;5.430;2023-04-12T09:22:43;5.22;;;0.98;;
71773;SDS011;59607;52.130;5.430;2023-04-12T09:25:15;9.13;;;1.27;;
71773;SDS011;59607;52.130;5.430;2023-04-12T09:27:51;7.88;;;1.80;;
71773;SDS011;59607;52.130;5.430;2023-04-12T09:30:23;7.22;;;1.50;;
71773;SDS011;59607;52.130;5.430;2023-04-12T09:33:10;10.20;;;1.53;;
71773;SDS011;59607;52.130;5.430;2023-04-12T09:35:38;9.57;;;1.50;;
71773;SDS011;59607;52.130;5.430;2023-04-12T09:38:09;12.20;;;1.52;;
71773;SDS011;59607;52.130;5.430;2023-04-12T09:40:41;7.90;;;1.45;;
71773;SDS011;59607;52.130;5.430;2023-04-12T09:43:07;6.18;;;1.40;;
71773;SDS011;59607;52.130;5.430;2023-04-12T09:45:35;8.50;;;1.53;;
71773;SDS011;59607;52.130;5.430;2023-04-12T09:48:06;9.60;;;1.23;;
71773;SDS011;59607;52.130;5.430;2023-04-12T09:50:33;9.82;;;1.33;;
71773;SDS011;59607;52.130;5.430;2023-04-12T09:53:02;13.18;;;1.63;;
71773;SDS011;59607;52.130;5.430;2023-04-12T09:55:32;8.25;;;1.85;;
71773;SDS011;59607;52.130;5.430;2023-04-12T09:58:00;9.07;;;1.30;;
71773;SDS011;59607;52.130;5.430;2023-04-12T10:00:35;10.43;;;1.45;;
71773;SDS011;59607;52.130;5.430;2023-04-12T10:03:02;11.23;;;1.63;;
71773;SDS011;59607;52.130;5.430;2023-04-12T10:05:44;9.70;;;1.25;;
71773;SDS011;59607;52.130;5.430;2023-04-12T10:08:12;7.53;;;1.00;;
71773;SDS011;59607;52.130;5.430;2023-04-12T10:10:45;10.23;;;1.23;;
71773;SDS011;59607;52.130;5.430;2023-04-12T10:13:20;9.82;;;2.17;;
71773;SDS011;59607;52.130;5.430;2023-04-12T10:15:48;7.35;;;1.20;;
71773;SDS011;59607;52.130;5.430;2023-04-12T10:18:18;5.45;;;0.88;;
71773;SDS011;59607;52.130;5.430;2023-04-12T10:20:52;7.57;;;1.50;;
71773;SDS011;59607;52.130;5.430;2023-04-12T10:23:37;9.93;;;1.60;;
71773;SDS011;59607;52.130;5.430;2023-04-12T10:26:09;11.15;;;1.35;;
71773;SDS011;59607;52.130;5.430;2023-04-12T10:28:37;14.13;;;1.65;;
71773;SDS011;59607;52.130;5.430;2023-04-12T10:34:08;9.88;;;1.52;;
71773;SDS011;59607;52.130;5.430;2023-04-12T10:36:54;13.70;;;1.60;;
71773;SDS011;59607;52.130;5.430;2023-04-12T10:39:41;9.00;;;1.88;;
71773;SDS011;59607;52.130;5.430;2023-04-12T10:42:25;7.47;;;1.20;;
71773;SDS011;59607;52.130;5.430;2023-04-12T10:50:26;13.50;;;1.73;;
71773;SDS011;59607;52.130;5.430;2023-04-12T10:55:48;11.40;;;1.25;;
71773;SDS011;59607;52.130;5.430;2023-04-12T11:01:15;10.32;;;1.58;;
71773;SDS011;59607;52.130;5.430;2023-04-12T11:04:04;6.67;;;1.47;;
71773;SDS011;59607;52.130;5.430;2023-04-12T11:14:49;11.52;;;1.50;;
71773;SDS011;59607;52.130;5.430;2023-04-12T11:19:44;9.85;;;1.35;;
71773;SDS011;59607;52.130;5.430;2023-04-12T11:22:12;9.85;;;1.65;;
71773;SDS011;59607;52.130;5.430;2023-04-12T11:24:44;10.68;;;1.42;;
71773;SDS011;59607;52.130;5.430;2023-04-12T11:27:18;10.25;;;1.65;;
71773;SDS011;59607;52.130;5.430;2023-04-12T11:29:50;11.20;;;1.73;;
71773;SDS011;59607;52.130;5.430;2023-04-12T11:32:37;8.48;;;1.30;;
71773;SDS011;59607;52.130;5.430;2023-04-12T11:35:06;7.25;;;1.25;;
71773;SDS011;59607;52.130;5.430;2023-04-12T11:37:33;14.88;;;1.42;;
71773;SDS011;59607;52.130;5.430;2023-04-12T11:40:06;13.25;;;1.50;;
71773;SDS011;59607;52.130;5.430;2023-04-12T11:42:35;6.50;;;1.30;;
71773;SDS011;59607;52.130;5.430;2023-04-12T11:45:18;10.00;;;1.60;;
71773;SDS011;59607;52.130;5.430;2023-04-12T11:47:45;7.90;;;1.10;;
71773;SDS011;59607;52.130;5.430;2023-04-12T11:50:26;7.95;;;1.30;;
71773;SDS011;59607;52.130;5.430;2023-04-12T11:53:13;9.43;;;1.20;;
71773;SDS011;59607;52.130;5.430;2023-04-12T11:55:53;7.33;;;1.67;;
71773;SDS011;59607;52.130;5.430;2023-04-12T11:58:25;10.43;;;1.35;;
71773;SDS011;59607;52.130;5.430;2023-04-12T12:00:58;8.23;;;1.52;;
71773;SDS011;59607;52.130;5.430;2023-04-12T12:03:28;6.50;;;1.17;;
71773;SDS011;59607;52.130;5.430;2023-04-12T12:05:59;7.10;;;0.70;;
71773;SDS011;59607;52.130;5.430;2023-04-12T12:08:31;5.30;;;0.80;;
71773;SDS011;59607;52.130;5.430;2023-04-12T12:10:57;7.00;;;2.03;;
71773;SDS011;59607;52.130;5.430;2023-04-12T12:13:43;4.43;;;0.80;;
71773;SDS011;59607;52.130;5.430;2023-04-12T12:16:28;8.50;;;1.08;;
71773;SDS011;59607;52.130;5.430;2023-04-12T12:19:38;6.25;;;1.00;;
71773;SDS011;59607;52.130;5.430;2023-04-12T12:22:17;5.63;;;0.70;;
71773;SDS011;59607;52.130;5.430;2023-04-12T12:24:49;4.25;;;0.75;;
71773;SDS011;59607;52.130;5.430;2023-04-12T12:27:17;8.50;;;0.63;;
71773;SDS011;59607;52.130;5.430;2023-04-12T12:29:48;3.75;;;0.47;;
71773;SDS011;59607;52.130;5.430;2023-04-12T12:32:37;5.63;;;0.65;;
71773;SDS011;59607;52.130;5.430;2023-04-12T12:35:10;8.10;;;1.00;;
71773;SDS011;59607;52.130;5.430;2023-04-12T12:37:49;7.75;;;0.60;;
71773;SDS011;59607;52.130;5.430;2023-04-12T12:40:29;4.53;;;0.80;;
71773;SDS011;59607;52.130;5.430;2023-04-12T12:43:17;7.93;;;0.90;;
71773;SDS011;59607;52.130;5.430;2023-04-12T12:45:47;2.80;;;0.82;;
71773;SDS011;59607;52.130;5.430;2023-04-12T12:48:13;4.70;;;0.63;;
71773;SDS011;59607;52.130;5.430;2023-04-12T12:50:44;2.05;;;0.45;;
71773;SDS011;59607;52.130;5.430;2023-04-12T12:53:11;5.22;;;0.40;;
71773;SDS011;59607;52.130;5.430;2023-04-12T12:55:38;1.15;;;0.20;;
71773;SDS011;59607;52.130;5.430;2023-04-12T12:58:04;4.13;;;0.40;;
71773;SDS011;59607;52.130;5.430;2023-04-12T13:00:37;3.63;;;0.50;;
71773;SDS011;59607;52.130;5.430;2023-04-12T13:03:03;2.17;;;0.38;;
71773;SDS011;59607;52.130;5.430;2023-04-12T13:05:33;2.03;;;0.43;;
71773;SDS011;59607;52.130;5.430;2023-04-12T13:08:00;4.38;;;0.50;;
71773;SDS011;59607;52.130;5.430;2023-04-12T13:10:26;2.92;;;0.55;;
71773;SDS011;59607;52.130;5.430;2023-04-12T13:12:52;2.80;;;0.40;;
71773;SDS011;59607;52.130;5.430;2023-04-12T13:15:25;4.70;;;0.43;;
71773;SDS011;59607;52.130;5.430;2023-04-12T13:17:52;2.78;;;0.45;;
71773;SDS011;59607;52.130;5.430;2023-04-12T13:20:27;1.30;;;0.50;;
71773;SDS011;59607;52.130;5.430;2023-04-12T13:22:53;3.58;;;0.50;;
71773;SDS011;59607;52.130;5.430;2023-04-12T13:25:20;4.80;;;0.50;;
71773;SDS011;59607;52.130;5.430;2023-04-12T13:27:51;3.10;;;0.50;;
71773;SDS011;59607;52.130;5.430;2023-04-12T13:30:18;1.90;;;0.30;;
71773;SDS011;59607;52.130;5.430;2023-04-12T13:32:48;5.07;;;0.43;;
71773;SDS011;59607;52.130;5.430;2023-04-12T13:35:20;3.40;;;0.40;;
71773;SDS011;59607;52.130;5.430;2023-04-12T13:37:47;1.73;;;0.30;;
71773;SDS011;59607;52.130;5.430;2023-04-12T13:40:18;1.75;;;0.30;;
71773;SDS011;59607;52.130;5.430;2023-04-12T13:42:44;1.13;;;0.20;;
71773;SDS011;59607;52.130;5.430;2023-04-12T13:45:10;1.98;;;0.60;;
71773;SDS011;59607;52.130;5.430;2023-04-12T13:47:44;4.32;;;0.25;;
71773;SDS011;59607;52.130;5.430;2023-04-12T13:50:10;1.47;;;0.40;;
71773;SDS011;59607;52.130;5.430;2023-04-12T13:52:36;5.75;;;0.52;;
71773;SDS011;59607;52.130;5.430;2023-04-12T13:55:06;2.08;;;0.30;;
71773;SDS011;59607;52.130;5.430;2023-04-12T13:57:33;2.58;;;0.30;;
71773;SDS011;59607;52.130;5.430;2023-04-12T14:00:10;0.93;;;0.20;;
71773;SDS011;59607;52.130;5.430;2023-04-12T14:02:37;0.83;;;0.30;;
71773;SDS011;59607;52.130;5.430;2023-04-12T14:05:09;2.15;;;0.30;;
71773;SDS011;59607;52.130;5.430;2023-04-12T14:07:38;3.00;;;0.35;;
71773;SDS011;59607;52.130;5.430;2023-04-12T14:10:05;1.75;;;0.30;;
71773;SDS011;59607;52.130;5.430;2023-04-12T14:12:36;0.93;;;0.30;;
71773;SDS011;59607;52.130;5.430;2023-04-12T14:15:03;1.00;;;0.40;;
71773;SDS011;59607;52.130;5.430;2023-04-12T14:17:30;1.88;;;0.40;;
71773;SDS011;59607;52.130;5.430;2023-04-12T14:20:01;1.40;;;0.32;;
71773;SDS011;59607;52.130;5.430;2023-04-12T14:22:30;2.80;;;0.47;;
71773;SDS011;59607;52.130;5.430;2023-04-12T14:24:57;3.75;;;0.32;;
71773;SDS011;59607;52.130;5.430;2023-04-12T14:27:27;1.90;;;0.30;;
71773;SDS011;59607;52.130;5.430;2023-04-12T14:29:53;1.70;;;0.43;;
71773;SDS011;59607;52.130;5.430;2023-04-12T14:32:30;2.90;;;0.30;;
71773;SDS011;59607;52.130;5.430;2023-04-12T14:34:56;5.50;;;0.60;;
71773;SDS011;59607;52.130;5.430;2023-04-12T14:37:23;2.47;;;0.45;;
71773;SDS011;59607;52.130;5.430;2023-04-12T14:39:52;1.07;;;0.40;;
71773;SDS011;59607;52.130;5.430;2023-04-12T14:42:19;1.88;;;0.30;;
71773;SDS011;59607;52.130;5.430;2023-04-12T14:44:45;2.53;;;0.45;;
71773;SDS011;59607;52.130;5.430;2023-04-12T14:47:16;1.33;;;0.30;;
71773;SDS011;59607;52.130;5.430;2023-04-12T14:49:43;1.20;;;0.20;;
71773;SDS011;59607;52.130;5.430;2023-04-12T14:52:09;1.30;;;0.40;;
71773;SDS011;59607;52.130;5.430;2023-04-12T14:54:41;2.10;;;0.40;;
71773;SDS011;59607;52.130;5.430;2023-04-12T14:57:08;2.17;;;0.28;;
71773;SDS011;59607;52.130;5.430;2023-04-12T14:59:34;2.13;;;0.30;;
71773;SDS011;59607;52.130;5.430;2023-04-12T15:02:10;2.22;;;0.38;;
71773;SDS011;59607;52.130;5.430;2023-04-12T15:04:36;3.43;;;0.30;;
71773;SDS011;59607;52.130;5.430;2023-04-12T15:07:03;0.98;;;0.20;;
71773;SDS011;59607;52.130;5.430;2023-04-12T15:09:29;1.48;;;0.40;;
71773;SDS011;59607;52.130;5.430;2023-04-12T15:11:56;4.10;;;0.30;;
71773;SDS011;59607;52.130;5.430;2023-04-12T15:14:33;3.20;;;0.40;;
71773;SDS011;59607;52.130;5.430;2023-04-12T15:17:00;1.37;;;0.20;;
71773;SDS011;59607;52.130;5.430;2023-04-12T15:19:36;1.17;;;0.30;;
71773;SDS011;59607;52.130;5.430;2023-04-12T15:22:03;2.33;;;0.50;;
71773;SDS011;59607;52.130;5.430;2023-04-12T15:24:29;1.75;;;0.20;;
71773;SDS011;59607;52.130;5.430;2023-04-12T15:27:01;0.88;;;0.30;;
71773;SDS011;59607;52.130;5.430;2023-04-12T15:29:31;2.47;;;0.33;;
71773;SDS011;59607;52.130;5.430;2023-04-12T15:32:04;3.90;;;0.20;;
71773;SDS011;59607;52.130;5.430;2023-04-12T15:34:32;1.25;;;0.30;;
71773;SDS011;59607;52.130;5.430;2023-04-12T15:37:06;1.10;;;0.30;;
71773;SDS011;59607;52.130;5.430;2023-04-12T15:39:33;0.73;;;0.20;;
71773;SDS011;59607;52.130;5.430;2023-04-12T15:42:03;1.33;;;0.30;;